Time;durP1;ratioP1;P1;durP2;ratioP2;P2;SDS_P1;SDS_P2;PMS_P1;PMS_P2;Temp;Humidity;BMP_temperature;BMP_pressure;BME280_temperature;BME280_humidity;BME280_pressure;Samples;Min_cycle;Max_cycle;Signal;HPM_P1;HPM_P2
2022/08/14 00:01:38;;;;;;;3.67;3.30;;;;;29.60;101126.00;;;;5089671;28;20206;-77
2022/08/14 00:04:05;;;;;;;3.53;3.22;;;;;29.50;101130.00;;;;5090686;28;20206;-78
2022/08/14 00:06:33;;;;;;;3.40;3.10;;;;;29.50;101127.00;;;;5090401;28;20206;-77
2022/08/14 00:09:00;;;;;;;3.75;2.92;;;;;29.50;101117.00;;;;5099907;28;20213;-77
2022/08/14 00:11:28;;;;;;;3.85;3.53;;;;;29.50;101116.00;;;;5089438;28;20206;-77
2022/08/14 00:13:56;;;;;;;4.18;3.40;;;;;29.50;101112.00;;;;5090800;28;20198;-77
2022/08/14 00:16:25;;;;;;;3.67;3.30;;;;;29.50;101110.00;;;;5089744;28;20652;-78
2022/08/14 00:18:52;;;;;;;4.18;3.78;;;;;29.50;101100.00;;;;5102135;28;20214;-78
2022/08/14 00:21:20;;;;;;;3.85;3.55;;;;;29.50;101105.00;;;;5089786;28;20575;-78
2022/08/14 00:23:48;;;;;;;3.55;3.25;;;;;29.50;101099.00;;;;5088475;28;20202;-78
2022/08/14 00:26:15;;;;;;;4.50;3.75;;;;;29.40;101092.00;;;;5090337;28;20226;-77
2022/08/14 00:28:42;;;;;;;5.97;3.88;;;;;29.40;101102.00;;;;5088890;28;20213;-77
2022/08/14 00:31:10;;;;;;;3.60;2.90;;;;;29.40;101089.00;;;;5069335;28;20218;-77
2022/08/14 00:33:38;;;;;;;5.93;4.10;;;;;29.40;101086.00;;;;5088864;28;20205;-78
2022/08/14 00:36:06;;;;;;;4.05;3.72;;;;;29.40;101079.00;;;;5090385;28;20202;-77
2022/08/14 00:38:34;;;;;;;5.45;3.97;;;;;29.30;101081.00;;;;5089628;28;20633;-78
2022/08/14 00:41:03;;;;;;;5.45;3.42;;;;;29.30;101084.00;;;;5093763;28;20556;-77
2022/08/14 00:43:30;;;;;;;10.50;3.55;;;;;29.30;101080.00;;;;5091422;28;20198;-77
2022/08/14 00:45:57;;;;;;;3.65;3.35;;;;;29.30;101081.00;;;;5075380;28;20198;-77
2022/08/14 00:48:25;;;;;;;3.70;3.28;;;;;29.30;101075.00;;;;5089684;28;20190;-77
2022/08/14 00:50:54;;;;;;;7.10;3.92;;;;;29.20;101062.00;;;;5090585;28;20206;-77
2022/08/14 00:53:22;;;;;;;3.75;3.42;;;;;29.20;101062.00;;;;5088128;28;20197;-77
2022/08/14 00:55:51;;;;;;;3.28;2.97;;;;;29.20;101065.00;;;;5090081;28;20210;-78
2022/08/14 00:58:30;;;;;;;3.85;3.53;;;;;29.20;101060.00;;;;5089612;28;20226;-78
2022/08/14 01:00:58;;;;;;;5.07;4.30;;;;;29.10;101056.00;;;;5089186;28;21044;-78
2022/08/14 01:03:28;;;;;;;4.28;3.60;;;;;29.10;101050.00;;;;5085844;28;20698;-78
2022/08/14 01:05:58;;;;;;;3.95;3.45;;;;;29.00;101059.00;;;;5089612;28;20206;-77
2022/08/14 01:08:27;;;;;;;5.35;4.07;;;;;29.00;101051.00;;;;5096637;28;20284;-78
2022/08/14 01:10:55;;;;;;;5.00;3.90;;;;;29.00;101047.00;;;;5094439;28;20194;-78
2022/08/14 01:13:25;;;;;;;3.67;3.35;;;;;29.00;101053.00;;;;5087089;28;20626;-78
2022/08/14 01:15:55;;;;;;;4.25;3.88;;;;;29.00;101048.00;;;;5089851;28;20204;-78
2022/08/14 01:21:13;;;;;;;8.60;4.00;;;;;28.90;101041.00;;;;5089243;28;20251;-78
2022/08/14 01:23:44;;;;;;;6.32;3.80;;;;;28.90;101033.00;;;;5087232;28;20222;-78
2022/08/14 01:26:13;;;;;;;4.75;4.00;;;;;28.90;101027.00;;;;5089196;28;20574;-77
2022/08/14 01:28:41;;;;;;;3.85;3.55;;;;;28.80;101028.00;;;;5088611;28;20206;-77
2022/08/14 01:31:11;;;;;;;4.53;4.13;;;;;28.80;101021.00;;;;5088796;28;20194;-77
2022/08/14 01:33:43;;;;;;;9.23;3.22;;;;;28.80;101023.00;;;;5088548;28;21046;-77
2022/08/14 01:36:11;;;;;;;3.85;3.53;;;;;28.70;101012.00;;;;5087053;28;20265;-77
2022/08/14 01:38:43;;;;;;;6.68;4.55;;;;;28.70;101017.00;;;;5085283;28;20221;-77
2022/08/14 01:41:12;;;;;;;4.38;3.97;;;;;28.70;101015.00;;;;5079750;28;20199;-77
2022/08/14 01:43:48;;;;;;;5.03;4.10;;;;;28.60;101014.00;;;;5083269;28;20197;-77
2022/08/14 01:46:17;;;;;;;5.63;3.72;;;;;28.60;101010.00;;;;5088636;28;20201;-77
2022/08/14 01:48:45;;;;;;;3.78;3.38;;;;;28.60;101010.00;;;;5087798;28;20198;-77
2022/08/14 01:51:15;;;;;;;18.92;4.72;;;;;28.60;101008.00;;;;5073319;28;20197;-77
2022/08/14 01:53:47;;;;;;;4.15;3.75;;;;;28.50;101005.00;;;;5088389;28;20899;-77
2022/08/14 01:56:18;;;;;;;4.20;3.80;;;;;28.50;100997.00;;;;5088935;28;20291;-78
2022/08/14 01:58:47;;;;;;;4.32;3.92;;;;;28.50;101003.00;;;;5088173;28;20233;-77
2022/08/14 02:01:15;;;;;;;4.20;3.80;;;;;28.40;101004.00;;;;5087559;28;20205;-77
2022/08/14 02:03:44;;;;;;;5.68;4.05;;;;;28.40;100996.00;;;;5087619;28;20695;-77
2022/08/14 02:06:12;;;;;;;6.38;3.83;;;;;28.40;100993.00;;;;5086772;28;20194;-77
2022/08/14 02:08:41;;;;;;;6.75;4.13;;;;;28.30;100989.00;;;;5087151;28;20221;-77
2022/08/14 02:11:18;;;;;;;4.85;4.40;;;;;28.30;100997.00;;;;5088151;28;20573;-77
2022/08/14 02:13:49;;;;;;;4.65;4.25;;;;;28.30;100994.00;;;;5086424;28;20205;-77
2022/08/14 02:16:18;;;;;;;5.15;4.05;;;;;28.20;100987.00;;;;5084719;28;20597;-77
2022/08/14 02:18:46;;;;;;;5.15;4.47;;;;;28.20;100985.00;;;;5082737;28;20218;-77
2022/08/14 02:21:17;;;;;;;4.38;3.92;;;;;28.20;100987.00;;;;5087434;28;20198;-77
2022/08/14 02:23:46;;;;;;;4.30;3.75;;;;;28.20;100997.00;;;;5093652;28;20237;-77
2022/08/14 02:26:19;;;;;;;4.55;4.15;;;;;28.10;100985.00;;;;5067442;28;20230;-77
2022/08/14 02:28:49;;;;;;;5.63;3.47;;;;;28.10;100986.00;;;;5067964;28;20199;-77
2022/08/14 02:31:17;;;;;;;5.25;4.03;;;;;28.10;100986.00;;;;5071611;28;20197;-77
2022/08/14 02:33:46;;;;;;;4.53;3.90;;;;;28.10;100995.00;;;;5086154;28;21629;-77
2022/08/14 02:36:14;;;;;;;4.15;3.78;;;;;28.00;100989.00;;;;5087504;28;20248;-77
2022/08/14 02:38:42;;;;;;;3.92;3.55;;;;;28.00;100986.00;;;;5088820;28;20226;-77
2022/08/14 02:41:11;;;;;;;4.30;3.90;;;;;28.00;100990.00;;;;5089350;28;20206;-78
2022/08/14 02:43:41;;;;;;;3.70;3.40;;;;;28.00;100989.00;;;;5092492;28;20209;-77
2022/08/14 02:46:10;;;;;;;4.28;3.88;;;;;28.00;100983.00;;;;5088523;28;20196;-77
2022/08/14 02:48:40;;;;;;;4.35;3.95;;;;;27.90;100989.00;;;;5086997;28;20206;-77
2022/08/14 02:51:10;;;;;;;6.43;4.00;;;;;27.90;100986.00;;;;5087365;28;20198;-77
2022/08/14 02:53:40;;;;;;;5.35;3.95;;;;;27.90;100989.00;;;;5087227;28;20322;-77
2022/08/14 02:56:09;;;;;;;4.70;3.90;;;;;27.80;100984.00;;;;5087352;28;20703;-77
2022/08/14 02:58:38;;;;;;;4.68;4.03;;;;;27.80;100978.00;;;;5089967;28;20214;-77
2022/08/14 03:01:08;;;;;;;5.68;4.00;;;;;27.70;100979.00;;;;5089971;28;20226;-77
2022/08/14 03:03:36;;;;;;;4.82;3.85;;;;;27.70;100982.00;;;;5090789;28;20228;-77
2022/08/14 03:06:04;;;;;;;4.43;4.00;;;;;27.70;100982.00;;;;5090779;28;20194;-77
2022/08/14 03:08:32;;;;;;;6.05;4.18;;;;;27.60;100980.00;;;;5091837;28;20236;-77
2022/08/14 03:11:01;;;;;;;7.65;3.97;;;;;27.60;100971.00;;;;5090889;28;20611;-77
2022/08/14 03:13:30;;;;;;;4.65;4.18;;;;;27.60;100974.00;;;;5090964;28;20194;-77
2022/08/14 03:15:57;;;;;;;4.38;3.97;;;;;27.50;100969.00;;;;5091387;28;20247;-77
2022/08/14 03:18:27;;;;;;;4.28;3.88;;;;;27.40;100965.00;;;;5091241;28;20225;-77
2022/08/14 03:20:55;;;;;;;4.30;3.90;;;;;27.40;100968.00;;;;5091066;28;20205;-77
2022/08/14 03:23:22;;;;;;;4.22;3.83;;;;;27.40;100970.00;;;;5090700;28;20572;-77
2022/08/14 03:25:49;;;;;;;5.07;3.88;;;;;27.30;100964.00;;;;5090623;28;20197;-77
2022/08/14 03:28:17;;;;;;;4.88;4.10;;;;;27.30;100963.00;;;;5091499;28;20205;-77
2022/08/14 03:30:44;;;;;;;4.05;3.65;;;;;27.20;100962.00;;;;5090255;28;20202;-78
2022/08/14 03:33:13;;;;;;;4.05;3.42;;;;;27.20;100965.00;;;;5090668;28;20644;-77
2022/08/14 03:35:42;;;;;;;4.53;3.95;;;;;27.10;100956.00;;;;5102523;28;20198;-78
2022/08/14 03:38:12;;;;;;;4.05;3.67;;;;;27.10;100957.00;;;;5102756;28;20210;-78
2022/08/14 03:40:40;;;;;;;4.72;3.75;;;;;27.10;100952.00;;;;5086546;28;20316;-77
2022/08/14 03:43:08;;;;;;;3.67;3.35;;;;;27.00;100948.00;;;;5090721;28;20683;-77
2022/08/14 03:45:37;;;;;;;4.50;4.10;;;;;27.00;100951.00;;;;5090835;28;20194;-77
2022/08/14 03:48:12;;;;;;;4.75;4.07;;;;;27.00;100944.00;;;;5091519;28;20187;-77
2022/08/14 03:50:43;;;;;;;4.50;4.10;;;;;26.90;100946.00;;;;5090626;28;20241;-77
2022/08/14 03:53:12;;;;;;;4.82;4.32;;;;;26.90;100946.00;;;;5091167;28;20222;-78
2022/08/14 03:55:40;;;;;;;5.10;4.60;;;;;26.80;100945.00;;;;5090507;28;20289;-77
2022/08/14 03:58:07;;;;;;;4.93;3.97;;;;;26.80;100944.00;;;;5077445;28;20203;-77
2022/08/14 04:00:35;;;;;;;4.75;4.30;;;;;26.70;100947.00;;;;5084320;28;20237;-77
2022/08/14 04:03:04;;;;;;;4.88;3.92;;;;;26.70;100947.00;;;;5094007;28;20194;-77
2022/08/14 04:05:38;;;;;;;4.30;3.67;;;;;26.60;100946.00;;;;5102753;28;20212;-80
2022/08/14 04:08:09;;;;;;;4.72;4.05;;;;;26.60;100945.00;;;;5089733;28;20215;-80
2022/08/14 04:10:37;;;;;;;5.18;4.78;;;;;26.60;100945.00;;;;5086127;28;20205;-80
2022/08/14 04:13:05;;;;;;;4.60;4.20;;;;;26.60;100948.00;;;;5089298;28;20262;-79
2022/08/14 04:15:33;;;;;;;5.28;4.20;;;;;26.50;100944.00;;;;5090382;28;20205;-80
2022/08/14 04:18:07;;;;;;;4.40;4.00;;;;;26.50;100940.00;;;;5089489;28;20206;-79
2022/08/14 04:20:34;;;;;;;5.28;3.85;;;;;26.50;100935.00;;;;5083078;28;20218;-79
2022/08/14 04:23:05;;;;;;;4.70;4.30;;;;;26.40;100933.00;;;;5087539;28;20195;-80
2022/08/14 04:25:35;;;;;;;3.83;3.45;;;;;26.40;100928.00;;;;5081914;28;20211;-79
2022/08/14 04:28:04;;;;;;;4.75;4.35;;;;;26.30;100931.00;;;;5076485;28;20234;-79
2022/08/14 04:30:37;;;;;;;5.82;4.40;;;;;26.30;100926.00;;;;5086019;28;20697;-79
2022/08/14 04:33:05;;;;;;;4.28;3.88;;;;;26.30;100922.00;;;;5088564;28;20183;-79
2022/08/14 04:35:33;;;;;;;5.43;4.05;;;;;26.30;100926.00;;;;5082397;28;20205;-79
2022/08/14 04:43:42;;;;;;;4.55;4.15;;;;;26.10;100928.00;;;;5044664;28;20268;-79
2022/08/14 04:46:12;;;;;;;5.60;4.85;;;;;26.10;100926.00;;;;5077859;28;20201;-79
2022/08/14 04:48:39;;;;;;;4.28;3.88;;;;;26.10;100924.00;;;;5089052;28;20190;-79
2022/08/14 04:51:08;;;;;;;4.35;3.88;;;;;26.10;100927.00;;;;5089622;28;20282;-79
2022/08/14 04:53:37;;;;;;;5.47;4.97;;;;;26.10;100923.00;;;;5089479;28;20233;-80
2022/08/14 04:56:06;;;;;;;4.50;4.10;;;;;26.10;100923.00;;;;5072653;28;20252;-80
2022/08/14 04:58:35;;;;;;;5.97;4.32;;;;;26.10;100912.00;;;;5088805;28;20228;-80
2022/08/14 05:01:05;;;;;;;6.50;5.00;;;;;26.10;100913.00;;;;5088410;28;20191;-79
2022/08/14 05:03:35;;;;;;;6.32;5.00;;;;;26.10;100913.00;;;;5089180;28;20660;-79
2022/08/14 05:06:04;;;;;;;7.22;4.55;;;;;26.10;100913.00;;;;5089099;28;20958;-80
2022/08/14 05:08:32;;;;;;;6.93;4.78;;;;;26.10;100909.00;;;;5088595;28;20214;-79
2022/08/14 05:11:02;;;;;;;4.38;3.97;;;;;26.10;100904.00;;;;5088793;28;20194;-79
2022/08/14 05:13:32;;;;;;;4.90;3.80;;;;;26.10;100896.00;;;;5088486;28;20191;-80
2022/08/14 05:16:00;;;;;;;4.80;4.40;;;;;26.20;100903.00;;;;5088876;28;20575;-80
2022/08/14 05:18:30;;;;;;;4.65;4.13;;;;;26.10;100893.00;;;;5088187;28;20198;-80
2022/08/14 05:21:00;;;;;;;4.97;4.38;;;;;26.20;100893.00;;;;5082177;28;20592;-80
2022/08/14 05:23:29;;;;;;;4.32;3.95;;;;;26.20;100895.00;;;;5089090;28;20199;-80
2022/08/14 05:25:59;;;;;;;6.00;4.70;;;;;26.20;100893.00;;;;5072616;28;20215;-80
2022/08/14 05:28:28;;;;;;;4.65;4.20;;;;;26.30;100893.00;;;;5075418;28;20220;-80
2022/08/14 05:30:59;;;;;;;7.35;4.47;;;;;26.30;100892.00;;;;5088165;28;20285;-80
2022/08/14 05:33:29;;;;;;;5.10;4.57;;;;;26.40;100889.00;;;;5088979;28;20198;-80
2022/08/14 05:35:59;;;;;;;5.90;4.50;;;;;26.40;100895.00;;;;5090101;28;20218;-80
2022/08/14 05:38:32;;;;;;;5.63;4.50;;;;;26.50;100892.00;;;;5095602;28;20194;-80
2022/08/14 05:41:00;;;;;;;5.13;4.70;;;;;26.50;100897.00;;;;5087965;28;20226;-79
2022/08/14 05:43:28;;;;;;;5.35;4.85;;;;;26.60;100888.00;;;;5087056;28;20201;-80
2022/08/14 05:45:57;;;;;;;5.55;4.70;;;;;26.70;100880.00;;;;5088387;28;20198;-79
2022/08/14 05:48:25;;;;;;;5.55;4.95;;;;;26.70;100882.00;;;;5087979;28;20218;-80
2022/08/14 05:50:53;;;;;;;4.82;4.40;;;;;26.80;100881.00;;;;5087929;28;20197;-80
2022/08/14 05:53:21;;;;;;;4.78;4.38;;;;;26.90;100878.00;;;;5088048;28;20256;-80
2022/08/14 05:55:48;;;;;;;5.88;5.13;;;;;27.00;100883.00;;;;5088658;28;20678;-80
2022/08/14 05:58:16;;;;;;;5.18;4.68;;;;;27.00;100882.00;;;;5088741;28;20205;-80
2022/08/14 06:00:45;;;;;;;5.35;4.85;;;;;27.10;100883.00;;;;5087229;28;20240;-80
2022/08/14 06:03:16;;;;;;;5.30;4.25;;;;;27.10;100889.00;;;;5087467;28;20221;-80
2022/08/14 06:05:45;;;;;;;5.65;5.03;;;;;27.20;100883.00;;;;5087505;28;20255;-80
2022/08/14 06:08:18;;;;;;;6.60;5.55;;;;;27.30;100878.00;;;;5088258;28;20221;-80
2022/08/14 06:10:46;;;;;;;5.18;4.68;;;;;27.40;100883.00;;;;5068423;28;20210;-79
2022/08/14 06:13:15;;;;;;;5.20;4.70;;;;;27.50;100880.00;;;;5085266;28;20190;-80
2022/08/14 06:15:43;;;;;;;5.75;5.20;;;;;27.50;100883.00;;;;5088434;28;20226;-80
2022/08/14 06:18:11;;;;;;;6.82;5.07;;;;;27.60;100878.00;;;;5087989;28;20307;-79
2022/08/14 06:20:40;;;;;;;4.85;4.45;;;;;27.70;100878.00;;;;5087997;28;20364;-79
2022/08/14 06:23:07;;;;;;;5.63;5.00;;;;;27.80;100881.00;;;;5087565;28;20537;-80
2022/08/14 06:25:34;;;;;;;6.88;4.97;;;;;27.90;100885.00;;;;5080178;28;20209;-80
2022/08/14 06:28:02;;;;;;;5.07;4.60;;;;;28.00;100887.00;;;;5088111;28;20209;-81
2022/08/14 06:30:31;;;;;;;6.35;5.22;;;;;28.00;100888.00;;;;5087878;28;20762;-80
2022/08/14 06:32:59;;;;;;;6.07;5.38;;;;;28.10;100888.00;;;;5095794;28;20193;-80
2022/08/14 06:35:26;;;;;;;5.72;4.60;;;;;28.20;100885.00;;;;5090276;28;20273;-79
2022/08/14 06:37:57;;;;;;;6.43;4.53;;;;;28.30;100881.00;;;;5088723;28;20213;-79
2022/08/14 06:40:26;;;;;;;4.95;4.45;;;;;28.40;100880.00;;;;5086811;28;20249;-80
2022/08/14 06:42:54;;;;;;;6.40;4.50;;;;;28.50;100885.00;;;;5087316;28;20190;-80
2022/08/14 06:45:22;;;;;;;6.05;5.45;;;;;28.60;100888.00;;;;5086755;28;20198;-81
2022/08/14 06:47:49;;;;;;;6.63;5.10;;;;;28.60;100878.00;;;;5087206;28;20201;-80
2022/08/14 06:50:20;;;;;;;12.45;5.70;;;;;28.70;100892.00;;;;5086888;28;20198;-80
2022/08/14 06:52:48;;;;;;;7.50;5.32;;;;;28.80;100882.00;;;;5087625;28;20198;-80
2022/08/14 06:55:18;;;;;;;8.82;5.43;;;;;28.80;100880.00;;;;5087673;28;20190;-80
2022/08/14 06:57:48;;;;;;;5.55;5.05;;;;;28.90;100890.00;;;;5087904;28;20194;-81
2022/08/14 07:00:18;;;;;;;5.43;4.93;;;;;29.00;100883.00;;;;5091010;28;20214;-80
2022/08/14 07:05:46;;;;;;;5.47;4.97;;;;;29.20;100877.00;;;;5082635;28;20675;-82
2022/08/14 07:08:16;;;;;;;5.22;4.72;;;;;29.30;100865.00;;;;5085877;28;20217;-80
2022/08/14 07:10:46;;;;;;;4.90;4.43;;;;;29.30;100865.00;;;;5086250;28;20289;-80
2022/08/14 07:13:14;;;;;;;5.30;4.78;;;;;29.50;100861.00;;;;5086883;28;20202;-79
2022/08/14 07:15:44;;;;;;;5.50;5.00;;;;;29.50;100859.00;;;;5086948;28;20757;-79
2022/08/14 07:18:12;;;;;;;4.72;4.25;;;;;29.60;100863.00;;;;5087511;28;20615;-81
2022/08/14 07:20:40;;;;;;;4.82;4.40;;;;;29.70;100861.00;;;;5085316;28;20218;-80
2022/08/14 07:23:09;;;;;;;5.82;4.75;;;;;29.80;100865.00;;;;5106955;28;20190;-80
2022/08/14 07:25:38;;;;;;;5.70;5.15;;;;;29.90;100862.00;;;;5077284;28;20311;-81
2022/08/14 07:28:19;;;;;;;5.50;4.97;;;;;29.90;100863.00;;;;5078175;28;20201;-81
2022/08/14 07:30:46;;;;;;;7.40;4.43;;;;;30.10;100864.00;;;;5095414;28;20198;-80
2022/08/14 07:33:14;;;;;;;7.65;4.15;;;;;30.20;100866.00;;;;5086591;28;20273;-81
2022/08/14 07:35:42;;;;;;;5.65;5.05;;;;;30.30;100864.00;;;;5084167;28;20194;-82
2022/08/14 07:38:16;;;;;;;4.93;4.50;;;;;30.40;100857.00;;;;5085779;28;20199;-80
2022/08/14 07:40:44;;;;;;;5.40;4.90;;;;;30.50;100866.00;;;;5087132;28;20249;-80
2022/08/14 07:43:12;;;;;;;5.18;4.68;;;;;30.60;100866.00;;;;5086864;28;20194;-79
2022/08/14 07:45:41;;;;;;;5.10;4.70;;;;;30.70;100859.00;;;;5085016;28;21118;-80
2022/08/14 07:48:09;;;;;;;5.72;4.35;;;;;30.80;100869.00;;;;5089958;28;20202;-81
2022/08/14 07:50:38;;;;;;;5.68;4.63;;;;;30.80;100862.00;;;;5088923;28;20706;-78
2022/08/14 07:53:06;;;;;;;5.47;4.95;;;;;30.90;100864.00;;;;5091184;28;20230;-78
2022/08/14 07:55:34;;;;;;;5.18;4.70;;;;;31.00;100866.00;;;;5090017;28;20683;-79
2022/08/14 07:58:02;;;;;;;5.15;4.63;;;;;31.10;100854.00;;;;5090267;28;20229;-78
2022/08/14 08:00:30;;;;;;;5.50;5.00;;;;;31.20;100856.00;;;;5089722;28;20695;-80
2022/08/14 08:02:59;;;;;;;4.95;4.53;;;;;31.30;100853.00;;;;5084436;28;20839;-82
2022/08/14 08:05:27;;;;;;;4.32;3.95;;;;;31.40;100862.00;;;;5088663;28;20256;-79
2022/08/14 08:07:55;;;;;;;5.10;4.60;;;;;31.50;100860.00;;;;5088864;28;20310;-80
2022/08/14 08:10:33;;;;;;;4.63;4.00;;;;;31.50;100851.00;;;;5089160;28;20273;-80
2022/08/14 08:13:03;;;;;;;4.78;4.28;;;;;31.60;100855.00;;;;5088607;28;20213;-79
2022/08/14 08:15:35;;;;;;;4.50;4.10;;;;;31.70;100852.00;;;;5085834;28;20614;-81
2022/08/14 08:18:04;;;;;;;7.60;3.92;;;;;31.80;100849.00;;;;5083660;28;20194;-80
2022/08/14 08:20:34;;;;;;;5.00;4.50;;;;;31.90;100844.00;;;;5087293;28;20225;-80
2022/08/14 08:23:03;;;;;;;4.57;4.18;;;;;32.00;100838.00;;;;5088582;28;20570;-79
2022/08/14 08:25:32;;;;;;;4.18;3.78;;;;;32.10;100849.00;;;;5086627;28;20203;-79
2022/08/14 08:28:02;;;;;;;4.70;4.25;;;;;32.20;100833.00;;;;5092645;28;20194;-79
2022/08/14 08:30:31;;;;;;;4.25;3.85;;;;;32.30;100831.00;;;;5090937;28;20186;-80
2022/08/14 08:33:00;;;;;;;5.00;4.57;;;;;32.50;100835.00;;;;5090674;28;20194;-79
2022/08/14 08:35:33;;;;;;;5.15;4.30;;;;;32.60;100825.00;;;;5085899;28;20993;-81
2022/08/14 08:38:06;;;;;;;4.65;4.25;;;;;32.70;100829.00;;;;5082481;28;20198;-83
2022/08/14 08:40:36;;;;;;;4.45;4.05;;;;;32.90;100826.00;;;;5088081;28;20225;-81
2022/08/14 08:43:06;;;;;;;5.25;4.70;;;;;33.00;100832.00;;;;5087741;28;20186;-81
2022/08/14 08:45:37;;;;;;;4.40;4.03;;;;;33.20;100833.00;;;;5079734;28;20303;-83
2022/08/14 08:48:06;;;;;;;4.25;3.83;;;;;33.30;100845.00;;;;5088634;28;20217;-83
2022/08/14 08:50:37;;;;;;;4.95;4.32;;;;;33.30;100844.00;;;;5088558;28;20217;-79
2022/08/14 08:53:07;;;;;;;4.25;3.83;;;;;33.50;100837.00;;;;5089970;28;20582;-81
2022/08/14 08:55:37;;;;;;;5.82;4.13;;;;;33.60;100844.00;;;;5089007;28;20194;-80
2022/08/14 08:58:06;;;;;;;4.40;4.00;;;;;33.80;100837.00;;;;5088149;28;20652;-79
2022/08/14 09:00:36;;;;;;;6.35;4.13;;;;;33.90;100843.00;;;;5089507;28;20225;-80
2022/08/14 09:03:06;;;;;;;4.63;4.22;;;;;34.00;100829.00;;;;5083200;28;20240;-80
2022/08/14 09:05:37;;;;;;;5.72;4.78;;;;;34.10;100824.00;;;;5087426;28;20198;-81
2022/08/14 09:08:17;;;;;;;5.57;4.28;;;;;34.20;100821.00;;;;5088415;28;20214;-81
2022/08/14 09:10:46;;;;;;;4.80;4.35;;;;;34.40;100823.00;;;;5088282;28;20951;-81
2022/08/14 09:13:14;;;;;;;5.22;4.20;;;;;34.50;100822.00;;;;5090825;28;20280;-80
2022/08/14 09:15:43;;;;;;;6.32;4.43;;;;;34.60;100819.00;;;;5079614;28;20292;-81
2022/08/14 09:18:12;;;;;;;4.82;4.43;;;;;34.70;100817.00;;;;5083330;28;20194;-81
2022/08/14 09:20:46;;;;;;;4.55;4.20;;;;;34.90;100820.00;;;;5087185;28;20225;-83
2022/08/14 09:23:14;;;;;;;4.70;4.00;;;;;35.00;100821.00;;;;5087025;28;20632;-81
2022/08/14 09:25:44;;;;;;;7.55;4.85;;;;;35.10;100816.00;;;;5088175;28;20198;-80
2022/08/14 09:28:13;;;;;;;4.47;4.10;;;;;35.30;100814.00;;;;5078221;28;20221;-81
2022/08/14 09:30:47;;;;;;;4.65;4.25;;;;;35.40;100813.00;;;;5088164;28;20193;-80
2022/08/14 09:33:51;;;;;;;4.95;4.13;;;;;35.40;100811.00;;;;5086218;28;20224;-81
2022/08/14 09:36:33;;;;;;;4.75;4.32;;;;;35.60;100804.00;;;;5085957;28;20204;-81
2022/08/14 09:39:10;;;;;;;6.82;4.43;;;;;35.70;100799.00;;;;5086172;28;20189;-79
2022/08/14 09:41:49;;;;;;;6.50;4.22;;;;;35.90;100805.00;;;;5085485;28;20232;-81
2022/08/14 09:44:29;;;;;;;4.32;3.95;;;;;36.00;100801.00;;;;5085166;28;20190;-80
2022/08/14 09:46:57;;;;;;;6.55;4.68;;;;;36.20;100797.00;;;;5087048;28;20343;-81
2022/08/14 09:49:35;;;;;;;4.75;4.35;;;;;36.20;100790.00;;;;5089753;28;20197;-79
2022/08/14 09:52:07;;;;;;;4.85;4.43;;;;;36.40;100785.00;;;;5085911;28;20196;-82
2022/08/14 09:54:41;;;;;;;4.40;4.00;;;;;36.50;100775.00;;;;5094115;28;20201;-80
2022/08/14 09:57:10;;;;;;;6.53;4.53;;;;;36.60;100777.00;;;;5087260;28;20250;-82
2022/08/14 09:59:44;;;;;;;4.75;4.25;;;;;36.70;100776.00;;;;5089495;28;20197;-82
2022/08/14 10:02:21;;;;;;;4.65;4.22;;;;;36.80;100779.00;;;;5094939;28;20209;-81
2022/08/14 10:05:00;;;;;;;6.75;4.57;;;;;36.90;100782.00;;;;5087702;28;20198;-82
2022/08/14 10:07:33;;;;;;;4.47;4.07;;;;;37.10;100778.00;;;;5084027;28;20213;-83
2022/08/14 10:10:01;;;;;;;5.07;4.57;;;;;37.20;100770.00;;;;5085262;28;20199;-82
2022/08/14 10:12:47;;;;;;;4.90;4.50;;;;;37.10;100760.00;;;;5086007;28;20208;-82
2022/08/14 10:15:16;;;;;;;4.30;3.90;;;;;37.30;100762.00;;;;5088628;28;20213;-84
2022/08/14 10:17:45;;;;;;;7.10;4.32;;;;;37.40;100759.00;;;;5086047;28;20190;-82
2022/08/14 10:20:14;;;;;;;4.28;3.97;;;;;37.40;100759.00;;;;5088062;28;20194;-82
2022/08/14 10:22:43;;;;;;;4.75;4.30;;;;;37.50;100749.00;;;;5088045;28;20204;-82
2022/08/14 10:25:13;;;;;;;7.47;3.72;;;;;37.50;100750.00;;;;5081860;28;20202;-81
2022/08/14 10:27:43;;;;;;;5.68;4.32;;;;;37.60;100745.00;;;;5074886;28;20230;-81
2022/08/14 10:30:15;;;;;;;4.57;4.18;;;;;37.60;100741.00;;;;5087479;28;20219;-81
2022/08/14 10:32:47;;;;;;;5.18;4.10;;;;;37.60;100738.00;;;;5083840;28;20225;-83
2022/08/14 10:35:15;;;;;;;6.35;4.93;;;;;37.70;100734.00;;;;5087909;28;20201;-82
2022/08/14 10:37:48;;;;;;;5.35;4.40;;;;;37.80;100735.00;;;;5088267;28;20201;-82
2022/08/14 10:40:25;;;;;;;6.38;4.63;;;;;37.90;100729.00;;;;5087358;28;20350;-82
2022/08/14 10:42:53;;;;;;;4.38;3.97;;;;;37.90;100727.00;;;;5069981;28;20205;-83
2022/08/14 10:45:22;;;;;;;4.38;4.05;;;;;38.00;100734.00;;;;5087349;28;20197;-83
2022/08/14 10:47:50;;;;;;;4.53;4.13;;;;;38.00;100728.00;;;;5087865;28;20208;-83
2022/08/14 10:50:28;;;;;;;5.13;3.90;;;;;38.00;100721.00;;;;5087124;28;20198;-82
2022/08/14 10:52:59;;;;;;;4.13;3.83;;;;;38.10;100721.00;;;;5087608;28;20957;-81
2022/08/14 10:55:38;;;;;;;4.45;4.05;;;;;38.10;100722.00;;;;5087320;28;20279;-82
2022/08/14 10:58:08;;;;;;;3.92;3.63;;;;;38.20;100718.00;;;;5087053;28;20201;-81
2022/08/14 11:00:36;;;;;;;4.47;4.07;;;;;38.20;100716.00;;;;5086950;28;20548;-82
2022/08/14 11:03:08;;;;;;;3.95;3.53;;;;;38.30;100706.00;;;;5087788;28;20186;-82
2022/08/14 11:05:40;;;;;;;3.70;3.40;;;;;38.30;100712.00;;;;5088105;28;20204;-82
2022/08/14 11:08:10;;;;;;;4.10;3.70;;;;;38.40;100711.00;;;;5087604;28;20210;-84
2022/08/14 11:10:44;;;;;;;8.38;3.50;;;;;38.40;100710.00;;;;5086735;28;20197;-80
2022/08/14 11:13:17;;;;;;;3.35;3.08;;;;;38.40;100706.00;;;;5087092;28;20205;-80
2022/08/14 11:15:45;;;;;;;4.10;3.70;;;;;38.50;100709.00;;;;5087825;28;20208;-82
2022/08/14 11:18:13;;;;;;;3.67;3.38;;;;;38.50;100708.00;;;;5087798;28;20224;-81
2022/08/14 11:20:48;;;;;;;3.50;3.20;;;;;38.50;100710.00;;;;5086747;28;20578;-81
2022/08/14 11:23:20;;;;;;;3.38;3.08;;;;;38.50;100707.00;;;;5090950;28;20201;-83
2022/08/14 11:25:48;;;;;;;3.40;3.10;;;;;38.60;100711.00;;;;5090176;28;20677;-81
2022/08/14 11:28:16;;;;;;;3.53;3.22;;;;;38.60;100709.00;;;;5091572;28;20643;-83
2022/08/14 11:30:45;;;;;;;3.85;3.50;;;;;38.60;100702.00;;;;5090352;28;20216;-81
2022/08/14 11:33:12;;;;;;;3.00;2.80;;;;;38.50;100702.00;;;;5085106;28;20199;-82
2022/08/14 11:35:40;;;;;;;3.63;3.13;;;;;38.50;100696.00;;;;5073048;28;20206;-81
2022/08/14 11:38:09;;;;;;;3.22;2.92;;;;;38.50;100687.00;;;;5090368;28;20208;-80
2022/08/14 11:40:39;;;;;;;2.35;2.08;;;;;38.40;100694.00;;;;5079277;28;20688;-81
2022/08/14 11:43:08;;;;;;;4.32;2.75;;;;;38.40;100699.00;;;;5070505;28;20229;-81
2022/08/14 11:45:37;;;;;;;3.00;2.80;;;;;38.40;100698.00;;;;5071104;28;20194;-81
2022/08/14 11:48:15;;;;;;;4.85;2.78;;;;;38.40;100701.00;;;;5080469;28;20285;-81
2022/08/14 11:50:44;;;;;;;5.30;2.90;;;;;38.40;100706.00;;;;5090293;28;20247;-81
2022/08/14 11:53:20;;;;;;;2.85;2.65;;;;;38.30;100693.00;;;;5089907;28;20209;-80
2022/08/14 11:55:56;;;;;;;9.32;2.75;;;;;38.30;100700.00;;;;5090360;28;20208;-81
2022/08/14 11:58:27;;;;;;;3.47;3.17;;;;;38.30;100692.00;;;;5091034;28;20235;-80
2022/08/14 12:00:58;;;;;;;2.28;2.08;;;;;38.40;100693.00;;;;5091016;28;20624;-80
2022/08/14 12:03:35;;;;;;;2.03;1.90;;;;;38.30;100681.00;;;;5086755;28;20193;-81
2022/08/14 12:06:07;;;;;;;2.55;2.35;;;;;38.40;100682.00;;;;5109639;28;20647;-81
2022/08/14 12:08:35;;;;;;;2.25;2.05;;;;;38.40;100680.00;;;;5110661;28;20208;-80
2022/08/14 12:11:05;;;;;;;2.95;2.28;;;;;38.40;100683.00;;;;5092393;28;20210;-81
2022/08/14 12:13:33;;;;;;;2.58;2.38;;;;;38.40;100678.00;;;;5090022;28;20225;-81
2022/08/14 12:16:03;;;;;;;2.70;2.50;;;;;38.40;100675.00;;;;5090275;28;20715;-81
2022/08/14 12:18:33;;;;;;;2.88;2.15;;;;;38.40;100673.00;;;;5084368;28;20189;-80
2022/08/14 12:21:12;;;;;;;2.85;2.60;;;;;38.40;100667.00;;;;5089572;28;20289;-82
2022/08/14 12:23:39;;;;;;;2.45;2.25;;;;;38.50;100656.00;;;;5089739;28;20213;-82
2022/08/14 12:26:10;;;;;;;2.75;2.55;;;;;38.50;100649.00;;;;5089657;28;20225;-81
2022/08/14 12:28:38;;;;;;;3.28;2.97;;;;;38.50;100641.00;;;;5087038;28;20654;-80
2022/08/14 12:31:23;;;;;;;3.38;2.70;;;;;38.40;100646.00;;;;5090053;28;20197;-82
2022/08/14 12:33:59;;;;;;;3.08;2.80;;;;;38.50;100640.00;;;;5089116;28;20574;-81